Time;durP1;ratioP1;P1;durP2;ratioP2;P2;SDS_P1;SDS_P2;PMS_P1;PMS_P2;Temp;Humidity;BMP_temperature;BMP_pressure;BME280_temperature;BME280_humidity;BME280_pressure;Samples;Min_cycle;Max_cycle;Signal;HPM_P1;HPM_P2
2023/01/22 00:00:13;;;;;;;;;;;;;;;16.36;50.96;101978.44;2333609;74;51331;-75
2023/01/22 00:03:15;;;;;;;;;;;;;;;16.36;50.90;101976.61;2367503;75;50370;-75
2023/01/22 00:06:16;;;;;;;;;;;;;;;16.35;50.62;101978.94;2334007;74;51571;-75
2023/01/22 00:09:21;;;;;;;;;;;;;;;16.29;50.56;101968.31;2330871;75;52369;-74
2023/01/22 00:12:21;;;;;;;;;;;;;;;16.29;50.42;101974.98;2331565;75;22295;-74
2023/01/22 00:15:23;;;;;;;;;;;;;;;16.21;50.24;101965.48;2331690;75;51477;-75
2023/01/22 00:18:25;;;;;;;;;;;;;;;16.22;50.26;101968.49;2356613;75;51493;-75
2023/01/22 00:21:26;;;;;;;;;;;;;;;16.22;50.44;101977.84;2331442;75;51162;-75
2023/01/22 00:24:28;;;;;;;;;;;;;;;16.20;49.88;101977.12;2331250;75;51602;-75
2023/01/22 00:27:29;;;;;;;;;;;;;;;16.17;49.78;101972.05;2356575;75;51468;-75
2023/01/22 00:30:31;;;;;;;;;;;;;;;16.15;49.90;101973.17;2356629;75;50326;-75
2023/01/22 00:33:33;;;;;;;;;;;;;;;16.11;50.06;101964.59;2286536;75;51252;-74
2023/01/22 00:36:34;;;;;;;;;;;;;;;16.01;49.67;101970.38;2292151;76;50127;-73
2023/01/22 00:39:36;;;;;;;;;;;;;;;16.05;49.33;101966.45;2330208;74;50308;-74
2023/01/22 00:42:38;;;;;;;;;;;;;;;16.03;49.49;101960.39;2333973;75;50889;-74
2023/01/22 00:45:39;;;;;;;;;;;;;;;15.98;49.08;101963.95;2331597;75;49642;-74
2023/01/22 00:48:41;;;;;;;;;;;;;;;15.96;49.34;101968.60;2356590;75;50287;-74
2023/01/22 00:51:43;;;;;;;;;;;;;;;15.97;49.68;101966.28;2331613;75;50276;-74
2023/01/22 00:54:44;;;;;;;;;;;;;;;15.96;49.37;101975.27;2356382;75;50766;-74
2023/01/22 00:57:46;;;;;;;;;;;;;;;15.97;49.54;101976.95;2356702;75;50449;-73
2023/01/22 01:00:47;;;;;;;;;;;;;;;15.91;48.73;101964.99;2356694;75;50671;-75
2023/01/22 01:03:49;;;;;;;;;;;;;;;15.91;49.06;101975.67;2356482;75;50328;-75
2023/01/22 01:06:51;;;;;;;;;;;;;;;15.91;49.26;101969.48;2331677;75;50298;-74
2023/01/22 01:09:52;;;;;;;;;;;;;;;15.87;49.10;101971.06;2332814;75;49631;-74
2023/01/22 01:12:54;;;;;;;;;;;;;;;15.86;49.10;101969.88;2321972;75;50297;-76
2023/01/22 01:15:59;;;;;;;;;;;;;;;15.86;49.48;101969.39;2342914;74;50647;-74
2023/01/22 01:19:05;;;;;;;;;;;;;;;15.84;49.22;101981.17;2356785;75;51578;-74
2023/01/22 01:22:07;;;;;;;;;;;;;;;15.83;49.21;101975.00;2331471;75;51273;-75
2023/01/22 01:25:08;;;;;;;;;;;;;;;15.82;49.11;101981.30;2331600;75;50201;-74
2023/01/22 01:28:10;;;;;;;;;;;;;;;15.82;49.24;101981.30;2331418;75;50129;-74
2023/01/22 01:31:12;;;;;;;;;;;;;;;15.81;48.97;101982.28;2331658;75;50685;-75
2023/01/22 01:34:14;;;;;;;;;;;;;;;15.82;49.17;101981.30;2350493;75;52586;-74
2023/01/22 01:37:16;;;;;;;;;;;;;;;15.78;48.75;101978.55;2331697;75;51525;-77
2023/01/22 01:40:17;;;;;;;;;;;;;;;15.77;49.29;101991.52;2356637;74;51661;-74
2023/01/22 01:43:19;;;;;;;;;;;;;;;15.77;49.01;101995.52;2361486;74;50303;-76
2023/01/22 01:46:22;;;;;;;;;;;;;;;15.77;49.18;101990.68;2349255;74;50545;-74
2023/01/22 01:49:35;;;;;;;;;;;;;;;15.77;48.83;101989.34;2333564;75;52774;-73
2023/01/22 01:52:36;;;;;;;;;;;;;;;15.76;48.71;101987.66;2368438;75;50227;-73
2023/01/22 01:55:38;;;;;;;;;;;;;;;15.71;48.73;101994.72;2368674;75;50258;-73
2023/01/22 01:58:40;;;;;;;;;;;;;;;15.70;48.61;101994.38;2368664;75;51462;-73
2023/01/22 02:01:41;;;;;;;;;;;;;;;15.68;48.62;101995.80;2333602;75;51107;-73
2023/01/22 02:04:43;;;;;;;;;;;;;;;15.65;48.42;102005.90;2333478;75;50413;-73
2023/01/22 02:07:44;;;;;;;;;;;;;;;15.65;48.34;102005.41;2333622;75;50294;-73
2023/01/22 02:10:46;;;;;;;;;;;;;;;15.65;48.47;101997.89;2368717;75;50653;-74
2023/01/22 02:13:49;;;;;;;;;;;;;;;15.67;48.44;102014.62;2332810;75;52934;-73
2023/01/22 02:16:58;;;;;;;;;;;;;;;15.64;48.32;102009.52;2363343;75;50460;-73
2023/01/22 02:20:00;;;;;;;;;;;;;;;15.63;48.25;102007.84;2360968;75;50318;-73
2023/01/22 02:23:02;;;;;;;;;;;;;;;15.58;48.11;102002.05;2338658;75;50781;-73
2023/01/22 02:26:03;;;;;;;;;;;;;;;15.56;47.90;102008.00;2338461;75;52557;-74
2023/01/22 02:29:06;;;;;;;;;;;;;;;15.55;47.93;102007.66;2338796;75;50763;-73
2023/01/22 02:32:08;;;;;;;;;;;;;;;15.52;47.93;102005.25;2361361;75;51566;-74
2023/01/22 02:35:09;;;;;;;;;;;;;;;15.51;47.85;102003.05;2361702;75;51467;-74
2023/01/22 02:38:13;;;;;;;;;;;;;;;15.45;47.92;102003.09;2298497;75;52310;-73
2023/01/22 02:41:14;;;;;;;;;;;;;;;15.45;47.82;101993.75;2361729;74;50360;-74
2023/01/22 02:44:16;;;;;;;;;;;;;;;15.44;48.05;101997.41;2362934;75;50775;-74
2023/01/22 02:47:17;;;;;;;;;;;;;;;15.44;47.72;101999.23;2366287;75;51483;-73
2023/01/22 02:50:19;;;;;;;;;;;;;;;15.42;47.66;102000.69;2368687;75;51453;-75
2023/01/22 02:53:20;;;;;;;;;;;;;;;15.44;48.01;102005.90;2333214;75;50730;-73
2023/01/22 02:56:22;;;;;;;;;;;;;;;15.40;47.97;102003.12;2368762;75;51423;-73
2023/01/22 02:59:24;;;;;;;;;;;;;;;15.42;47.74;101991.84;2368815;75;50303;-74
2023/01/22 03:02:25;;;;;;;;;;;;;;;15.41;47.71;102004.34;2333727;75;51452;-75
2023/01/22 03:05:27;;;;;;;;;;;;;;;15.40;47.85;102009.78;2333902;75;51574;-74
2023/01/22 03:08:28;;;;;;;;;;;;;;;15.39;48.03;102006.28;2333817;75;50116;-74
2023/01/22 03:11:30;;;;;;;;;;;;;;;15.38;47.62;102001.06;2368807;75;50309;-74
2023/01/22 03:21:17;;;;;;;;;;;;;;;15.39;47.79;102014.28;2357044;75;22537;-75
2023/01/22 03:24:19;;;;;;;;;;;;;;;15.23;45.10;102016.52;2356503;74;50778;-75
2023/01/22 03:27:21;;;;;;;;;;;;;;;15.12;44.18;102027.23;2324618;75;51739;-72
2023/01/22 03:30:23;;;;;;;;;;;;;;;15.01;43.94;102022.79;2285870;76;50293;-73
2023/01/22 03:33:24;;;;;;;;;;;;;;;14.88;43.76;102034.94;2311427;76;50469;-73
2023/01/22 03:36:26;;;;;;;;;;;;;;;14.83;43.76;102021.62;2311672;76;50971;-73
2023/01/22 03:39:27;;;;;;;;;;;;;;;14.72;42.38;102027.80;2311652;76;49610;-73
2023/01/22 03:42:29;;;;;;;;;;;;;;;14.75;42.80;102029.75;2311550;76;50788;-73
2023/01/22 03:45:32;;;;;;;;;;;;;;;14.67;42.51;102030.86;2324029;76;50766;-74
2023/01/22 03:48:34;;;;;;;;;;;;;;;14.55;42.62;102020.70;2323616;75;50427;-73
2023/01/22 03:51:35;;;;;;;;;;;;;;;14.57;41.99;102024.58;2324048;76;50346;-73
2023/01/22 03:54:37;;;;;;;;;;;;;;;14.44;42.89;102027.34;2332519;74;50530;-73
2023/01/22 03:57:39;;;;;;;;;;;;;;;14.34;42.70;102026.37;2333940;75;50252;-73
2023/01/22 04:00:40;;;;;;;;;;;;;;;14.34;42.04;102023.22;2302023;76;50656;-73
2023/01/22 04:03:42;;;;;;;;;;;;;;;14.32;42.19;102030.97;2328627;74;51558;-74
2023/01/22 04:06:43;;;;;;;;;;;;;;;14.22;42.26;102033.98;2308436;75;50113;-73
2023/01/22 04:09:45;;;;;;;;;;;;;;;14.22;42.18;102028.17;2331585;75;51650;-74
2023/01/22 04:12:46;;;;;;;;;;;;;;;14.18;42.04;102028.53;2356387;75;51369;-74
2023/01/22 04:15:48;;;;;;;;;;;;;;;14.16;41.89;102031.33;2331496;75;51009;-74
2023/01/22 04:18:50;;;;;;;;;;;;;;;14.07;42.16;102034.20;2358281;74;50269;-74
2023/01/22 04:21:51;;;;;;;;;;;;;;;14.03;41.89;102037.25;2354796;75;50284;-73
2023/01/22 04:24:53;;;;;;;;;;;;;;;14.05;41.93;102037.50;2333329;75;50497;-74
2023/01/22 04:27:54;;;;;;;;;;;;;;;13.98;42.39;102038.94;2333615;75;52504;-75
2023/01/22 04:30:56;;;;;;;;;;;;;;;13.92;41.97;102048.70;2333618;75;51530;-74
2023/01/22 04:33:57;;;;;;;;;;;;;;;13.92;41.40;102058.01;2368509;75;50748;-73
2023/01/22 04:36:59;;;;;;;;;;;;;;;13.87;42.01;102044.22;2333577;74;51471;-74
2023/01/22 04:40:01;;;;;;;;;;;;;;;13.87;42.00;102045.09;2291171;74;52275;-73
2023/01/22 04:43:03;;;;;;;;;;;;;;;13.84;42.25;102052.44;2333529;74;50478;-73
2023/01/22 04:46:04;;;;;;;;;;;;;;;13.67;42.17;102061.72;2351837;74;51462;-74
2023/01/22 04:49:06;;;;;;;;;;;;;;;13.71;42.15;102055.19;2333638;75;51485;-73
2023/01/22 04:52:08;;;;;;;;;;;;;;;13.67;42.13;102057.23;2291459;75;52562;-73
2023/01/22 04:55:09;;;;;;;;;;;;;;;13.70;42.13;102064.98;2333554;75;52527;-74
2023/01/22 04:58:11;;;;;;;;;;;;;;;13.71;42.29;102071.14;2368694;75;51611;-74
2023/01/22 05:01:12;;;;;;;;;;;;;;;13.62;42.40;102067.37;2333637;75;51552;-74
2023/01/22 05:04:14;;;;;;;;;;;;;;;13.72;42.88;102074.19;2290659;75;51141;-74
2023/01/22 05:07:15;;;;;;;;;;;;;;;13.80;44.20;102074.94;2333934;75;50308;-74
2023/01/22 05:10:17;;;;;;;;;;;;;;;13.87;43.98;102068.16;2368660;75;50246;-74
2023/01/22 05:13:19;;;;;;;;;;;;;;;13.89;44.61;102076.88;2336834;74;50314;-74
2023/01/22 05:16:20;;;;;;;;;;;;;;;13.92;44.44;102088.16;2282223;76;51176;-74
2023/01/22 05:19:22;;;;;;;;;;;;;;;13.95;44.62;102089.73;2291738;77;50285;-75
2023/01/22 05:22:23;;;;;;;;;;;;;;;13.99;44.73;102097.83;2291704;76;50791;-74
2023/01/22 05:25:25;;;;;;;;;;;;;;;13.98;44.91;102089.98;2294330;75;51101;-74
2023/01/22 05:28:26;;;;;;;;;;;;;;;14.00;44.98;102100.00;2293719;76;52475;-74
2023/01/22 05:31:28;;;;;;;;;;;;;;;14.05;45.33;102104.03;2292832;76;51036;-74
2023/01/22 05:34:30;;;;;;;;;;;;;;;14.07;45.34;102102.56;2292655;75;50836;-74
2023/01/22 05:37:32;;;;;;;;;;;;;;;14.10;45.40;102100.53;2320163;77;50373;-74
2023/01/22 05:40:42;;;;;;;;;;;;;;;14.15;45.49;102101.48;2421839;72;21812;-73
2023/01/22 05:43:43;;;;;;;;;;;;;;;14.12;45.65;102100.40;2370322;74;50059;-73
2023/01/22 05:46:45;;;;;;;;;;;;;;;14.13;45.57;102101.63;2293169;76;51555;-74
2023/01/22 05:49:47;;;;;;;;;;;;;;;14.15;45.57;102112.13;2344863;75;50562;-74
2023/01/22 05:52:50;;;;;;;;;;;;;;;14.14;45.62;102121.09;2380124;74;50538;-74
2023/01/22 05:55:51;;;;;;;;;;;;;;;14.14;45.76;102110.45;2379159;73;50544;-75
2023/01/22 05:58:53;;;;;;;;;;;;;;;14.13;45.69;102121.59;2355320;75;52294;-74
2023/01/22 06:01:55;;;;;;;;;;;;;;;14.13;45.42;102122.08;2382541;74;51341;-74
2023/01/22 06:04:56;;;;;;;;;;;;;;;14.15;45.58;102130.77;2382628;74;49428;-74
2023/01/22 06:07:58;;;;;;;;;;;;;;;14.13;45.75;102138.05;2378148;75;50218;-73
2023/01/22 06:11:00;;;;;;;;;;;;;;;14.15;45.70;102134.77;2382586;74;51251;-73
2023/01/22 06:14:02;;;;;;;;;;;;;;;14.15;45.75;102139.63;2369407;75;50163;-74
2023/01/22 06:17:03;;;;;;;;;;;;;;;14.16;45.84;102129.33;2363240;75;51462;-74
2023/01/22 06:20:05;;;;;;;;;;;;;;;14.16;45.88;102142.64;2340692;75;53101;-73
2023/01/22 06:23:07;;;;;;;;;;;;;;;14.16;45.86;102143.97;2326289;75;52355;-73
2023/01/22 06:26:08;;;;;;;;;;;;;;;14.19;47.62;102150.03;2376007;75;51441;-70
2023/01/22 06:29:10;;;;;;;;;;;;;;;14.28;49.42;102151.52;2376000;75;51450;-71
2023/01/22 06:32:12;;;;;;;;;;;;;;;14.39;49.82;102146.69;2375761;75;50630;-71
2023/01/22 06:35:13;;;;;;;;;;;;;;;14.52;49.73;102153.24;2340485;75;52397;-71
2023/01/22 06:38:15;;;;;;;;;;;;;;;14.56;49.81;102156.89;2339928;75;50640;-71
2023/01/22 06:41:16;;;;;;;;;;;;;;;14.63;49.62;102157.27;2360358;75;51397;-71
2023/01/22 06:44:18;;;;;;;;;;;;;;;14.66;49.65;102159.69;2352503;75;51484;-71
2023/01/22 06:47:20;;;;;;;;;;;;;;;14.68;49.53;102155.58;2314826;75;51844;-71
2023/01/22 06:50:21;;;;;;;;;;;;;;;14.69;49.44;102159.93;2359851;75;51300;-72
2023/01/22 06:53:23;;;;;;;;;;;;;;;14.72;49.55;102155.69;2359334;75;51273;-71
2023/01/22 06:56:24;;;;;;;;;;;;;;;14.72;49.63;102157.02;2334091;75;51316;-71
2023/01/22 06:59:26;;;;;;;;;;;;;;;14.73;49.61;102152.91;2320183;75;52245;-71
2023/01/22 07:02:28;;;;;;;;;;;;;;;14.78;49.52;102159.22;2359272;75;50259;-71
2023/01/22 07:05:29;;;;;;;;;;;;;;;14.82;49.39;102153.99;2323652;75;51459;-71
2023/01/22 07:08:32;;;;;;;;;;;;;;;14.86;49.46;102151.47;2325325;74;50189;-71
2023/01/22 07:11:33;;;;;;;;;;;;;;;14.90;49.34;102157.38;2309488;76;52634;-71
2023/01/22 07:14:35;;;;;;;;;;;;;;;14.95;49.41;102165.41;2321420;75;51349;-71
2023/01/22 07:17:36;;;;;;;;;;;;;;;14.99;49.47;102177.50;2309409;75;51336;-71
2023/01/22 07:20:38;;;;;;;;;;;;;;;15.07;49.35;102173.38;2321366;76;51435;-71
2023/01/22 07:23:41;;;;;;;;;;;;;;;15.12;49.21;102184.53;2308656;75;52307;-71
2023/01/22 07:26:42;;;;;;;;;;;;;;;15.17;49.07;102193.84;2309529;76;50690;-72
2023/01/22 07:29:44;;;;;;;;;;;;;;;15.31;48.84;102194.55;2309436;76;51376;-73
2023/01/22 07:32:45;;;;;;;;;;;;;;;15.33;51.11;102201.45;2309276;76;52322;-72
2023/01/22 07:35:48;;;;;;;;;;;;;;;15.45;49.75;102202.30;2280559;75;51290;-72
2023/01/22 07:38:50;;;;;;;;;;;;;;;15.52;49.38;102209.33;2330657;74;52223;-72
2023/01/22 07:41:52;;;;;;;;;;;;;;;15.55;49.26;102213.92;2320317;76;50144;-72
2023/01/22 07:44:53;;;;;;;;;;;;;;;15.60;49.14;102218.89;2285588;77;50261;-72
2023/01/22 07:47:56;;;;;;;;;;;;;;;15.65;49.04;102225.54;2286008;77;49374;-73
2023/01/22 07:51:04;;;;;;;;;;;;;;;15.72;48.94;102221.05;2285948;77;51400;-72
2023/01/22 07:54:06;;;;;;;;;;;;;;;15.76;48.87;102219.34;2309699;77;50501;-73
2023/01/22 07:57:13;;;;;;;;;;;;;;;15.83;49.02;102225.88;2309979;77;51620;-73
2023/01/22 08:00:11;;;;;;;;;;;;;;;15.88;48.97;102231.69;2286480;77;22291;-73
2023/01/22 08:03:14;;;;;;;;;;;;;;;15.96;48.89;102232.89;2285636;76;51327;-74
2023/01/22 08:06:16;;;;;;;;;;;;;;;16.05;49.11;102233.44;2309830;77;50600;-73
2023/01/22 08:09:23;;;;;;;;;;;;;;;16.12;49.04;102242.64;2313970;75;51468;-74
2023/01/22 08:12:21;;;;;;;;;;;;;;;16.17;48.85;102240.44;2333603;74;22304;-73
2023/01/22 08:15:23;;;;;;;;;;;;;;;16.26;48.67;102247.69;2298297;76;50064;-74
2023/01/22 08:18:25;;;;;;;;;;;;;;;16.33;48.63;102247.51;2321700;76;52298;-74
2023/01/22 08:21:26;;;;;;;;;;;;;;;16.40;48.91;102239.84;2321604;76;51600;-73
2023/01/22 08:24:28;;;;;;;;;;;;;;;16.48;48.70;102241.86;2297178;76;49771;-74
2023/01/22 08:27:30;;;;;;;;;;;;;;;16.54;48.47;102242.66;2297348;76;50143;-74
2023/01/22 08:30:32;;;;;;;;;;;;;;;16.64;48.62;102252.93;2297346;75;50720;-74
2023/01/22 08:33:33;;;;;;;;;;;;;;;16.72;48.77;102251.81;2321419;76;50197;-74
2023/01/22 08:36:35;;;;;;;;;;;;;;;16.82;48.84;102252.38;2327372;75;51085;-72
2023/01/22 08:39:36;;;;;;;;;;;;;;;16.91;48.75;102249.75;2338497;75;50456;-74
2023/01/22 08:42:38;;;;;;;;;;;;;;;16.99;48.67;102254.44;2349300;75;50585;-74
2023/01/22 08:45:39;;;;;;;;;;;;;;;17.06;48.62;102258.28;2349805;75;51391;-74
2023/01/22 08:48:42;;;;;;;;;;;;;;;17.14;48.57;102261.13;2349553;75;52225;-74
2023/01/22 08:51:44;;;;;;;;;;;;;;;17.20;48.49;102263.25;2342885;75;50232;-74
2023/01/22 08:54:46;;;;;;;;;;;;;;;17.25;48.55;102271.38;2342758;76;51521;-72
2023/01/22 08:57:49;;;;;;;;;;;;;;;17.32;48.42;102271.20;2343309;75;51330;-74
2023/01/22 09:00:51;;;;;;;;;;;;;;;17.37;48.47;102280.52;2323063;76;52338;-74
2023/01/22 09:03:52;;;;;;;;;;;;;;;17.43;48.41;102275.60;2348757;74;50225;-73
2023/01/22 09:06:54;;;;;;;;;;;;;;;17.54;48.26;102283.52;2377834;74;50412;-74
2023/01/22 09:09:55;;;;;;;;;;;;;;;17.59;48.30;102292.82;2345488;76;51548;-73
2023/01/22 09:13:00;;;;;;;;;;;;;;;17.69;48.26;102291.52;2299335;76;51071;-75
2023/01/22 09:16:01;;;;;;;;;;;;;;;17.73;48.38;102303.66;2327019;76;51496;-73
2023/01/22 09:19:04;;;;;;;;;;;;;;;17.83;48.35;102309.08;2349897;76;51166;-72
2023/01/22 09:22:06;;;;;;;;;;;;;;;17.87;48.34;102298.42;2325270;76;51574;-75
2023/01/22 09:25:08;;;;;;;;;;;;;;;17.89;48.49;102300.48;2299537;76;50847;-73
2023/01/22 09:28:11;;;;;;;;;;;;;;;17.94;49.01;102298.73;2326659;76;50331;-72
2023/01/22 09:31:13;;;;;;;;;;;;;;;17.97;49.24;102303.30;2349538;76;50751;-73
2023/01/22 09:34:14;;;;;;;;;;;;;;;18.03;49.52;102305.92;2345008;76;50601;-72
2023/01/22 09:37:16;;;;;;;;;;;;;;;18.09;49.70;102309.90;2353246;74;51814;-75
2023/01/22 09:40:30;;;;;;;;;;;;;;;18.11;49.95;102316.81;2364584;74;50304;-73
2023/01/22 09:43:33;;;;;;;;;;;;;;;18.18;50.13;102318.42;2326201;75;50415;-73
2023/01/22 09:46:36;;;;;;;;;;;;;;;18.22;50.29;102318.50;2319104;74;50216;-73
2023/01/22 09:49:40;;;;;;;;;;;;;;;18.32;50.25;102328.73;2298837;75;51373;-75
2023/01/22 09:52:41;;;;;;;;;;;;;;;18.32;50.34;102332.76;2329661;75;50216;-76
2023/01/22 09:55:46;;;;;;;;;;;;;;;18.39;50.27;102326.33;2331318;76;50629;-77
2023/01/22 09:58:49;;;;;;;;;;;;;;;18.43;50.25;102324.56;2333165;76;50163;-74
2023/01/22 10:01:52;;;;;;;;;;;;;;;18.52;50.05;102329.56;2333128;76;50212;-76
2023/01/22 10:04:55;;;;;;;;;;;;;;;18.52;50.07;102324.20;2324354;76;51409;-76
2023/01/22 10:07:59;;;;;;;;;;;;;;;18.60;50.14;102323.49;2317712;76;50783;-75
2023/01/22 10:11:01;;;;;;;;;;;;;;;18.62;50.15;102325.55;2331470;76;50577;-73
2023/01/22 10:14:03;;;;;;;;;;;;;;;18.70;50.03;102332.38;2232260;77;52360;-76
2023/01/22 10:17:04;;;;;;;;;;;;;;;18.79;49.92;102328.87;2256502;77;51363;-74
2023/01/22 10:20:07;;;;;;;;;;;;;;;18.85;49.86;102330.13;2289341;77;51389;-75
2023/01/22 10:23:10;;;;;;;;;;;;;;;18.90;49.62;102323.34;2288929;77;51439;-75
2023/01/22 10:26:16;;;;;;;;;;;;;;;18.96;49.36;102327.78;2255568;77;50873;-74
2023/01/22 10:29:25;;;;;;;;;;;;;;;18.97;49.24;102321.44;2256457;77;50344;-74
2023/01/22 10:32:27;;;;;;;;;;;;;;;19.01;49.28;102324.17;2289851;77;51814;-75
2023/01/22 10:35:30;;;;;;;;;;;;;;;18.99;49.34;102317.63;2311604;76;51439;-74
2023/01/22 10:38:32;;;;;;;;;;;;;;;19.01;49.31;102332.22;2285447;76;49966;-74
2023/01/22 10:41:33;;;;;;;;;;;;;;;19.01;49.38;102334.90;2325982;75;50348;-75
2023/01/22 10:44:35;;;;;;;;;;;;;;;19.02;49.37;102340.63;2373808;75;51485;-74
2023/01/22 10:47:37;;;;;;;;;;;;;;;19.02;49.38;102333.92;2374368;75;51375;-74
2023/01/22 10:50:38;;;;;;;;;;;;;;;19.02;49.36;102330.74;2351112;75;51000;-75
2023/01/22 10:53:50;;;;;;;;;;;;;;;19.03;49.36;102331.58;2378185;74;50594;-74
2023/01/22 10:56:52;;;;;;;;;;;;;;;18.99;49.38;102336.91;2373673;74;50729;-73
2023/01/22 11:00:12;;;;;;;;;;;;;;;18.90;49.49;102317.98;2373721;75;50465;-74
2023/01/22 11:03:15;;;;;;;;;;;;;;;18.79;49.68;102315.47;2377835;74;51161;-75
2023/01/22 11:06:18;;;;;;;;;;;;;;;18.68;49.98;102324.99;2355652;74;50333;-76
2023/01/22 11:09:21;;;;;;;;;;;;;;;18.59;50.13;102329.35;2370473;75;51453;-76
2023/01/22 11:12:29;;;;;;;;;;;;;;;18.50;50.28;102333.74;2373422;75;50151;-76
2023/01/22 11:15:42;;;;;;;;;;;;;;;18.48;50.49;102326.83;2378181;74;50819;-75
2023/01/22 11:19:00;;;;;;;;;;;;;;;18.49;50.70;102328.02;2373593;75;51562;-75
2023/01/22 11:22:02;;;;;;;;;;;;;;;18.50;51.06;102333.74;2373318;75;50334;-74
2023/01/22 11:25:04;;;;;;;;;;;;;;;18.48;51.30;102337.05;2373501;75;50274;-74
2023/01/22 11:28:11;;;;;;;;;;;;;;;18.51;51.33;102335.92;2378087;74;52655;-74
2023/01/22 11:31:14;;;;;;;;;;;;;;;18.51;51.38;102329.22;2373519;75;51508;-75
2023/01/22 11:34:33;;;;;;;;;;;;;;;18.55;51.16;102332.45;2369335;74;51419;-75
2023/01/22 11:37:45;;;;;;;;;;;;;;;18.59;50.94;102336.56;2359576;75;51426;-75
2023/01/22 11:41:05;;;;;;;;;;;;;;;18.62;50.74;102332.24;2371908;74;50626;-74
2023/01/22 11:44:08;;;;;;;;;;;;;;;18.69;50.52;102331.53;2361504;75;51492;-75
2023/01/22 11:47:14;;;;;;;;;;;;;;;18.74;50.44;102322.23;2361417;74;51521;-74
2023/01/22 11:50:17;;;;;;;;;;;;;;;18.78;50.50;102330.34;2362026;74;51321;-74
2023/01/22 11:53:26;;;;;;;;;;;;;;;18.84;50.46;102323.93;2348572;75;49611;-75
2023/01/22 11:56:32;;;;;;;;;;;;;;;18.91;50.52;102333.10;2361650;74;50379;-75
2023/01/22 11:59:36;;;;;;;;;;;;;;;18.90;50.68;102326.53;2361661;75;50296;-75
2023/01/22 12:02:42;;;;;;;;;;;;;;;18.83;50.99;102326.27;2361551;74;50186;-75
2023/01/22 12:06:02;;;;;;;;;;;;;;;18.79;51.12;102322.17;2340721;75;51199;-76
2023/01/22 12:09:08;;;;;;;;;;;;;;;18.70;51.50;102314.95;2352786;75;51524;-75
2023/01/22 12:12:28;;;;;;;;;;;;;;;18.59;52.01;102327.17;2359301;75;50625;-75
2023/01/22 12:15:31;;;;;;;;;;;;;;;18.49;52.76;102330.69;2359508;75;50379;-74
2023/01/22 12:18:43;;;;;;;;;;;;;;;18.40;53.13;102322.67;2334809;75;49498;-75
2023/01/22 12:21:59;;;;;;;;;;;;;;;18.40;53.21;102330.72;2360216;75;50376;-75
2023/01/22 12:25:19;;;;;;;;;;;;;;;18.42;52.92;102328.72;2360176;75;52047;-75
2023/01/22 12:28:22;;;;;;;;;;;;;;;18.48;52.67;102338.39;2360206;75;51572;-75
2023/01/22 12:31:28;;;;;;;;;;;;;;;18.52;52.46;102335.42;2334924;75;52720;-75
2023/01/22 12:34:31;;;;;;;;;;;;;;;18.56;52.37;102331.48;2360000;75;51542;-75
2023/01/22 12:37:37;;;;;;;;;;;;;;;18.60;52.23;102327.52;2340492;75;51559;-75
2023/01/22 12:40:57;;;;;;;;;;;;;;;18.61;52.24;102336.77;2321472;76;50652;-75
2023/01/22 12:44:02;;;;;;;;;;;;;;;18.69;52.21;102329.35;2322227;76;50494;-75
2023/01/22 12:47:14;;;;;;;;;;;;;;;18.67;52.23;102331.33;2321752;74;51539;-75
2023/01/22 12:50:17;;;;;;;;;;;;;;;18.75;52.01;102332.83;2322259;76;50831;-74
2023/01/22 12:53:22;;;;;;;;;;;;;;;18.81;51.92;102338.13;2321333;75;51455;-75
2023/01/22 12:56:31;;;;;;;;;;;;;;;18.78;51.88;102339.27;2297206;76;50949;-74
2023/01/22 12:59:37;;;;;;;;;;;;;;;18.78;51.90;102339.73;2296870;75;51512;-74
2023/01/22 13:02:39;;;;;;;;;;;;;;;18.69;52.08;102329.35;2320999;76;51577;-75
2023/01/22 13:05:43;;;;;;;;;;;;;;;18.58;52.44;102338.90;2334546;75;50822;-74
2023/01/22 13:08:44;;;;;;;;;;;;;;;18.50;52.59;102335.08;2350732;74;24402;-75
2023/01/22 13:11:46;;;;;;;;;;;;;;;18.44;52.73;102335.63;2376155;74;50338;-75
2023/01/22 13:14:47;;;;;;;;;;;;;;;18.37;52.81;102331.84;2361465;75;50679;-75
2023/01/22 13:17:57;;;;;;;;;;;;;;;18.36;52.86;102329.30;2361610;74;51495;-75
2023/01/22 13:21:06;;;;;;;;;;;;;;;18.39;52.82;102332.52;2348719;75;50035;-75
2023/01/22 13:24:15;;;;;;;;;;;;;;;18.44;52.76;102333.45;2361440;75;51219;-76
2023/01/22 13:27:23;;;;;;;;;;;;;;;18.52;52.63;102339.44;2361619;75;51479;-76
2023/01/22 13:30:26;;;;;;;;;;;;;;;18.48;52.56;102341.07;2361600;74;50318;-75
2023/01/22 13:33:28;;;;;;;;;;;;;;;18.50;52.53;102335.08;2376171;74;52361;-75
2023/01/22 13:36:29;;;;;;;;;;;;;;;18.58;52.36;102345.09;2298042;76;52393;-75
2023/01/22 13:39:31;;;;;;;;;;;;;;;18.64;52.32;102340.50;2309008;76;50210;-76
2023/01/22 13:42:33;;;;;;;;;;;;;;;18.61;52.40;102343.97;2330907;76;51418;-76
2023/01/22 13:45:35;;;;;;;;;;;;;;;18.72;52.03;102352.70;2351465;75;51661;-76
2023/01/22 13:48:37;;;;;;;;;;;;;;;18.74;52.00;102335.63;2344532;76;51484;-77
2023/01/22 13:51:38;;;;;;;;;;;;;;;18.63;52.26;102337.48;2344519;76;50291;-76
2023/01/22 13:54:42;;;;;;;;;;;;;;;18.56;52.48;102334.17;2344408;74;50354;-76
2023/01/22 13:57:44;;;;;;;;;;;;;;;18.50;52.58;102339.11;2351617;75;50969;-76
2023/01/22 14:00:47;;;;;;;;;;;;;;;18.42;52.83;102336.75;2351718;75;51419;-76
2023/01/22 14:03:51;;;;;;;;;;;;;;;18.36;52.94;102342.19;2344469;75;52226;-75
2023/01/22 14:06:52;;;;;;;;;;;;;;;18.27;53.09;102346.56;2371032;74;51559;-75
2023/01/22 14:09:54;;;;;;;;;;;;;;;18.25;53.22;102351.22;2392739;74;51076;-74
2023/01/22 14:13:00;;;;;;;;;;;;;;;18.31;52.98;102355.16;2392611;74;52188;-74
2023/01/22 14:16:05;;;;;;;;;;;;;;;18.39;52.83;102357.14;2385355;74;50192;-74
2023/01/22 14:19:05;;;;;;;;;;;;;;;18.42;52.79;102352.37;2392723;74;22379;-74
2023/01/22 14:22:07;;;;;;;;;;;;;;;18.45;52.78;102356.10;2364748;74;52415;-77
2023/01/22 14:25:09;;;;;;;;;;;;;;;18.47;52.82;102358.63;2386018;74;50616;-76
2023/01/22 14:28:10;;;;;;;;;;;;;;;18.51;52.76;102361.39;2393007;74;49926;-76
2023/01/22 14:31:12;;;;;;;;;;;;;;;18.54;52.60;102365.13;2386035;74;50322;-75
2023/01/22 14:34:13;;;;;;;;;;;;;;;18.57;52.59;102369.36;2389054;74;50810;-75
2023/01/22 14:37:15;;;;;;;;;;;;;;;18.64;52.48;102373.17;2338078;75;50578;-75
2023/01/22 14:40:17;;;;;;;;;;;;;;;18.69;52.38;102370.91;2345296;74;50262;-76
2023/01/22 14:43:19;;;;;;;;;;;;;;;18.66;52.54;102372.55;2344584;76;51487;-78
2023/01/22 14:46:20;;;;;;;;;;;;;;;18.62;52.82;102382.69;2352148;75;51511;-78
2023/01/22 14:49:22;;;;;;;;;;;;;;;18.65;53.02;102373.52;2351995;75;51349;-78
2023/01/22 14:52:23;;;;;;;;;;;;;;;18.52;53.55;102384.52;2344984;76;50454;-77
2023/01/22 14:55:25;;;;;;;;;;;;;;;18.50;53.67;102381.99;2351889;75;51448;-76
2023/01/22 14:58:27;;;;;;;;;;;;;;;18.43;53.97;102382.19;2352211;75;52654;-78
2023/01/22 15:01:28;;;;;;;;;;;;;;;18.33;54.27;102381.84;2352104;75;50570;-76
2023/01/22 15:04:30;;;;;;;;;;;;;;;18.33;54.17;102378.66;2358995;74;51372;-76
2023/01/22 15:07:34;;;;;;;;;;;;;;;18.31;54.27;102377.94;2375807;74;50214;-76
2023/01/22 15:10:36;;;;;;;;;;;;;;;18.39;54.16;102387.47;2392908;74;51818;-75
2023/01/22 15:13:37;;;;;;;;;;;;;;;18.45;54.13;102384.25;2386388;74;51225;-76
2023/01/22 15:16:39;;;;;;;;;;;;;;;18.49;53.97;102384.80;2386225;74;51359;-76
2023/01/22 15:19:41;;;;;;;;;;;;;;;18.60;53.65;102390.05;2392974;74;52302;-75
2023/01/22 15:22:42;;;;;;;;;;;;;;;18.66;53.55;102404.72;2364903;74;51592;-75
2023/01/22 15:25:44;;;;;;;;;;;;;;;18.68;53.65;102392.86;2392950;74;51574;-76
2023/01/22 15:28:45;;;;;;;;;;;;;;;18.58;53.82;102397.88;2385989;74;52166;-76
2023/01/22 15:31:47;;;;;;;;;;;;;;;18.55;53.81;102401.69;2385890;74;50201;-75
2023/01/22 15:34:48;;;;;;;;;;;;;;;18.44;54.07;102402.64;2383934;74;51388;-75
2023/01/22 15:37:50;;;;;;;;;;;;;;;18.38;54.25;102404.55;2375559;74;50418;-76
2023/01/22 15:40:53;;;;;;;;;;;;;;;18.33;54.77;102408.13;2385974;74;50258;-75
2023/01/22 15:43:59;;;;;;;;;;;;;;;18.25;54.88;102415.52;2378055;74;50277;-74